sensor_id;sensor_type;location;lat;lon;timestamp;temperature;humidity
9564;DHT22;4820;50.870;4.702;2023-01-19T00:01:24;2.10;99.90
9564;DHT22;4820;50.870;4.702;2023-01-19T00:03:50;2.10;99.90
9564;DHT22;4820;50.870;4.702;2023-01-19T00:06:18;2.10;99.90
9564;DHT22;4820;50.870;4.702;2023-01-19T00:08:45;2.10;99.90
9564;DHT22;4820;50.870;4.702;2023-01-19T00:11:13;2.00;99.90
9564;DHT22;4820;50.870;4.702;2023-01-19T00:13:40;2.00;99.90
9564;DHT22;4820;50.870;4.702;2023-01-19T00:16:06;2.00;99.90
9564;DHT22;4820;50.870;4.702;2023-01-19T00:18:32;2.00;99.90
9564;DHT22;4820;50.870;4.702;2023-01-19T00:20:58;2.00;99.90
9564;DHT22;4820;50.870;4.702;2023-01-19T00:23:26;2.00;99.90
9564;DHT22;4820;50.870;4.702;2023-01-19T00:25:51;1.90;99.90
9564;DHT22;4820;50.870;4.702;2023-01-19T00:28:18;1.90;99.90
9564;DHT22;4820;50.870;4.702;2023-01-19T00:30:44;1.90;99.90
9564;DHT22;4820;50.870;4.702;2023-01-19T00:33:11;1.90;99.90
9564;DHT22;4820;50.870;4.702;2023-01-19T00:35:40;1.90;99.90
9564;DHT22;4820;50.870;4.702;2023-01-19T00:38:10;1.90;99.90
9564;DHT22;4820;50.870;4.702;2023-01-19T00:40:36;1.90;99.90
9564;DHT22;4820;50.870;4.702;2023-01-19T00:43:02;1.90;99.90
9564;DHT22;4820;50.870;4.702;2023-01-19T00:45:28;1.90;99.90
9564;DHT22;4820;50.870;4.702;2023-01-19T00:47:54;2.00;99.90
9564;DHT22;4820;50.870;4.702;2023-01-19T00:50:23;2.00;99.90
9564;DHT22;4820;50.870;4.702;2023-01-19T00:52:52;1.90;99.90
9564;DHT22;4820;50.870;4.702;2023-01-19T00:55:18;1.90;99.90
9564;DHT22;4820;50.870;4.702;2023-01-19T00:57:45;1.90;99.90
9564;DHT22;4820;50.870;4.702;2023-01-19T01:00:16;1.90;99.90
9564;DHT22;4820;50.870;4.702;2023-01-19T01:02:43;1.90;99.90
9564;DHT22;4820;50.870;4.702;2023-01-19T01:05:10;1.90;99.90
9564;DHT22;4820;50.870;4.702;2023-01-19T01:07:37;1.90;99.90
9564;DHT22;4820;50.870;4.702;2023-01-19T01:10:10;1.90;99.90
9564;DHT22;4820;50.870;4.702;2023-01-19T01:12:36;1.90;99.90
9564;DHT22;4820;50.870;4.702;2023-01-19T01:15:04;1.90;99.90
9564;DHT22;4820;50.870;4.702;2023-01-19T01:17:29;1.80;99.90
9564;DHT22;4820;50.870;4.702;2023-01-19T01:19:55;1.80;99.90
9564;DHT22;4820;50.870;4.702;2023-01-19T01:22:20;1.80;99.90
9564;DHT22;4820;50.870;4.702;2023-01-19T01:24:47;1.90;99.90
9564;DHT22;4820;50.870;4.702;2023-01-19T01:27:13;1.80;99.90
9564;DHT22;4820;50.870;4.702;2023-01-19T01:29:39;1.80;99.90
9564;DHT22;4820;50.870;4.702;2023-01-19T01:32:06;1.80;99.90
9564;DHT22;4820;50.870;4.702;2023-01-19T01:34:32;1.80;99.90
9564;DHT22;4820;50.870;4.702;2023-01-19T01:36:58;1.80;99.90
9564;DHT22;4820;50.870;4.702;2023-01-19T01:39:23;1.80;99.90
9564;DHT22;4820;50.870;4.702;2023-01-19T01:41:50;1.70;99.90
9564;DHT22;4820;50.870;4.702;2023-01-19T01:47:35;1.70;99.90
9564;DHT22;4820;50.870;4.702;2023-01-19T01:50:29;1.70;99.90
9564;DHT22;4820;50.870;4.702;2023-01-19T01:52:58;1.70;99.90
9564;DHT22;4820;50.870;4.702;2023-01-19T01:55:26;1.70;99.90
9564;DHT22;4820;50.870;4.702;2023-01-19T01:57:56;1.70;99.90
9564;DHT22;4820;50.870;4.702;2023-01-19T02:00:24;1.70;99.90
9564;DHT22;4820;50.870;4.702;2023-01-19T02:02:50;1.70;99.90
9564;DHT22;4820;50.870;4.702;2023-01-19T02:05:21;1.70;99.90
9564;DHT22;4820;50.870;4.702;2023-01-19T02:08:07;1.70;99.90
9564;DHT22;4820;50.870;4.702;2023-01-19T02:10:53;1.70;99.90
9564;DHT22;4820;50.870;4.702;2023-01-19T02:13:39;1.70;99.90
9564;DHT22;4820;50.870;4.702;2023-01-19T02:16:09;1.70;99.90
9564;DHT22;4820;50.870;4.702;2023-01-19T02:18:35;1.70;99.90
9564;DHT22;4820;50.870;4.702;2023-01-19T02:21:30;1.70;99.90
9564;DHT22;4820;50.870;4.702;2023-01-19T02:24:00;1.70;99.90
9564;DHT22;4820;50.870;4.702;2023-01-19T02:26:34;1.70;99.90
9564;DHT22;4820;50.870;4.702;2023-01-19T02:29:08;1.70;99.90
9564;DHT22;4820;50.870;4.702;2023-01-19T02:31:35;1.70;99.90
9564;DHT22;4820;50.870;4.702;2023-01-19T02:34:03;1.70;99.90
9564;DHT22;4820;50.870;4.702;2023-01-19T02:39:05;1.70;99.90
9564;DHT22;4820;50.870;4.702;2023-01-19T02:41:38;1.70;99.90
9564;DHT22;4820;50.870;4.702;2023-01-19T02:44:05;1.70;99.90
9564;DHT22;4820;50.870;4.702;2023-01-19T02:46:32;1.70;99.90
9564;DHT22;4820;50.870;4.702;2023-01-19T02:48:59;1.70;99.90
9564;DHT22;4820;50.870;4.702;2023-01-19T02:51:26;1.70;99.90
9564;DHT22;4820;50.870;4.702;2023-01-19T02:56:38;1.70;99.90
9564;DHT22;4820;50.870;4.702;2023-01-19T03:08:39;1.80;99.90
9564;DHT22;4820;50.870;4.702;2023-01-19T03:18:27;1.90;99.90
9564;DHT22;4820;50.870;4.702;2023-01-19T03:20:58;1.80;99.90
9564;DHT22;4820;50.870;4.702;2023-01-19T03:23:26;1.90;99.90
9564;DHT22;4820;50.870;4.702;2023-01-19T03:25:54;1.90;99.90
9564;DHT22;4820;50.870;4.702;2023-01-19T03:28:23;1.90;99.90
9564;DHT22;4820;50.870;4.702;2023-01-19T03:31:05;1.90;99.90
9564;DHT22;4820;50.870;4.702;2023-01-19T03:33:33;1.90;99.90
9564;DHT22;4820;50.870;4.702;2023-01-19T03:36:05;2.00;99.90
9564;DHT22;4820;50.870;4.702;2023-01-19T03:38:36;2.00;99.90
9564;DHT22;4820;50.870;4.702;2023-01-19T03:41:06;2.00;99.90
9564;DHT22;4820;50.870;4.702;2023-01-19T03:43:34;2.00;99.90
9564;DHT22;4820;50.870;4.702;2023-01-19T03:46:02;2.10;99.90
9564;DHT22;4820;50.870;4.702;2023-01-19T03:48:29;2.10;99.90
9564;DHT22;4820;50.870;4.702;2023-01-19T03:50:55;2.10;99.90
9564;DHT22;4820;50.870;4.702;2023-01-19T03:53:22;2.20;99.90
9564;DHT22;4820;50.870;4.702;2023-01-19T03:55:50;2.20;99.90
9564;DHT22;4820;50.870;4.702;2023-01-19T03:58:16;2.20;99.90
9564;DHT22;4820;50.870;4.702;2023-01-19T04:00:42;2.30;99.90
9564;DHT22;4820;50.870;4.702;2023-01-19T04:03:13;2.20;99.90
9564;DHT22;4820;50.870;4.702;2023-01-19T04:05:39;2.20;99.90
9564;DHT22;4820;50.870;4.702;2023-01-19T04:08:06;2.20;99.90
9564;DHT22;4820;50.870;4.702;2023-01-19T04:10:33;2.30;99.90
9564;DHT22;4820;50.870;4.702;2023-01-19T04:13:00;2.30;99.90
9564;DHT22;4820;50.870;4.702;2023-01-19T04:15:26;2.30;99.90
9564;DHT22;4820;50.870;4.702;2023-01-19T04:17:56;2.30;99.90
9564;DHT22;4820;50.870;4.702;2023-01-19T04:20:23;2.30;99.90
9564;DHT22;4820;50.870;4.702;2023-01-19T04:22:48;2.30;99.90
9564;DHT22;4820;50.870;4.702;2023-01-19T04:25:15;2.30;99.90
9564;DHT22;4820;50.870;4.702;2023-01-19T04:27:42;2.30;99.90
9564;DHT22;4820;50.870;4.702;2023-01-19T04:30:08;2.30;99.90
9564;DHT22;4820;50.870;4.702;2023-01-19T04:32:34;2.30;99.90
9564;DHT22;4820;50.870;4.702;2023-01-19T04:35:00;2.30;99.90
9564;DHT22;4820;50.870;4.702;2023-01-19T04:37:26;2.30;99.90
9564;DHT22;4820;50.870;4.702;2023-01-19T04:39:52;2.20;99.90
9564;DHT22;4820;50.870;4.702;2023-01-19T04:42:17;2.20;99.90
9564;DHT22;4820;50.870;4.702;2023-01-19T04:44:44;2.20;99.90
9564;DHT22;4820;50.870;4.702;2023-01-19T04:47:09;2.10;99.90
9564;DHT22;4820;50.870;4.702;2023-01-19T04:49:35;2.10;99.90
9564;DHT22;4820;50.870;4.702;2023-01-19T04:52:04;2.10;99.90
9564;DHT22;4820;50.870;4.702;2023-01-19T04:54:30;2.00;99.90
9564;DHT22;4820;50.870;4.702;2023-01-19T04:56:56;2.00;99.90
9564;DHT22;4820;50.870;4.702;2023-01-19T04:59:22;2.00;99.90
9564;DHT22;4820;50.870;4.702;2023-01-19T05:01:47;1.90;99.90
9564;DHT22;4820;50.870;4.702;2023-01-19T05:04:14;1.90;99.90
9564;DHT22;4820;50.870;4.702;2023-01-19T05:06:40;1.90;99.90
9564;DHT22;4820;50.870;4.702;2023-01-19T05:09:06;1.80;99.90
9564;DHT22;4820;50.870;4.702;2023-01-19T05:11:34;1.80;99.90
9564;DHT22;4820;50.870;4.702;2023-01-19T05:14:00;1.80;99.90
9564;DHT22;4820;50.870;4.702;2023-01-19T05:16:26;1.80;99.90
9564;DHT22;4820;50.870;4.702;2023-01-19T05:18:51;1.80;99.90
9564;DHT22;4820;50.870;4.702;2023-01-19T05:21:17;1.70;99.90
9564;DHT22;4820;50.870;4.702;2023-01-19T05:23:43;1.70;99.90
9564;DHT22;4820;50.870;4.702;2023-01-19T05:26:09;1.70;99.90
9564;DHT22;4820;50.870;4.702;2023-01-19T05:28:35;1.70;99.90
9564;DHT22;4820;50.870;4.702;2023-01-19T05:31:00;1.70;99.90
9564;DHT22;4820;50.870;4.702;2023-01-19T05:33:26;1.70;99.90
9564;DHT22;4820;50.870;4.702;2023-01-19T05:35:53;1.60;99.90
9564;DHT22;4820;50.870;4.702;2023-01-19T05:38:20;1.60;99.90
9564;DHT22;4820;50.870;4.702;2023-01-19T05:40:46;1.60;99.90
9564;DHT22;4820;50.870;4.702;2023-01-19T05:43:13;1.60;99.90
9564;DHT22;4820;50.870;4.702;2023-01-19T05:45:38;1.60;99.90
9564;DHT22;4820;50.870;4.702;2023-01-19T05:48:06;1.60;99.90
9564;DHT22;4820;50.870;4.702;2023-01-19T05:50:34;1.60;99.90
9564;DHT22;4820;50.870;4.702;2023-01-19T05:53:02;1.60;99.90
9564;DHT22;4820;50.870;4.702;2023-01-19T05:55:28;1.60;99.90
9564;DHT22;4820;50.870;4.702;2023-01-19T05:57:53;1.60;99.90
9564;DHT22;4820;50.870;4.702;2023-01-19T06:00:19;1.60;99.90
9564;DHT22;4820;50.870;4.702;2023-01-19T06:02:46;1.60;99.90
9564;DHT22;4820;50.870;4.702;2023-01-19T06:05:14;1.60;99.90
9564;DHT22;4820;50.870;4.702;2023-01-19T06:07:40;1.60;99.90
9564;DHT22;4820;50.870;4.702;2023-01-19T06:10:06;1.60;99.90
9564;DHT22;4820;50.870;4.702;2023-01-19T06:12:32;1.60;99.90
9564;DHT22;4820;50.870;4.702;2023-01-19T06:14:58;1.60;99.90
9564;DHT22;4820;50.870;4.702;2023-01-19T06:17:23;1.50;99.90
9564;DHT22;4820;50.870;4.702;2023-01-19T06:19:49;1.50;99.90
9564;DHT22;4820;50.870;4.702;2023-01-19T06:22:15;1.50;99.90
9564;DHT22;4820;50.870;4.702;2023-01-19T06:24:40;1.50;99.90
9564;DHT22;4820;50.870;4.702;2023-01-19T06:27:06;1.50;99.90
9564;DHT22;4820;50.870;4.702;2023-01-19T06:29:32;1.50;99.90
9564;DHT22;4820;50.870;4.702;2023-01-19T06:31:57;1.50;99.90
9564;DHT22;4820;50.870;4.702;2023-01-19T06:34:23;1.50;99.90
9564;DHT22;4820;50.870;4.702;2023-01-19T06:36:56;1.50;99.90
9564;DHT22;4820;50.870;4.702;2023-01-19T06:39:22;1.50;99.90
9564;DHT22;4820;50.870;4.702;2023-01-19T06:41:47;1.50;99.90
9564;DHT22;4820;50.870;4.702;2023-01-19T06:44:13;1.40;99.90
9564;DHT22;4820;50.870;4.702;2023-01-19T06:46:39;1.50;99.90
9564;DHT22;4820;50.870;4.702;2023-01-19T06:49:05;1.50;99.90
9564;DHT22;4820;50.870;4.702;2023-01-19T06:51:34;1.50;99.90
9564;DHT22;4820;50.870;4.702;2023-01-19T06:54:00;1.50;99.90
9564;DHT22;4820;50.870;4.702;2023-01-19T06:56:28;1.50;99.90
9564;DHT22;4820;50.870;4.702;2023-01-19T06:58:54;1.50;99.90
9564;DHT22;4820;50.870;4.702;2023-01-19T07:01:20;1.40;99.90
9564;DHT22;4820;50.870;4.702;2023-01-19T07:03:49;1.40;99.90
9564;DHT22;4820;50.870;4.702;2023-01-19T07:06:15;1.50;99.90
9564;DHT22;4820;50.870;4.702;2023-01-19T07:08:41;1.50;99.90
9564;DHT22;4820;50.870;4.702;2023-01-19T07:11:09;1.50;99.90
9564;DHT22;4820;50.870;4.702;2023-01-19T07:13:36;1.60;99.90
9564;DHT22;4820;50.870;4.702;2023-01-19T07:16:04;1.60;99.90
9564;DHT22;4820;50.870;4.702;2023-01-19T07:18:30;1.60;99.90
9564;DHT22;4820;50.870;4.702;2023-01-19T07:20:57;1.70;99.90
9564;DHT22;4820;50.870;4.702;2023-01-19T07:23:22;1.70;99.90
9564;DHT22;4820;50.870;4.702;2023-01-19T07:25:48;1.70;99.90
9564;DHT22;4820;50.870;4.702;2023-01-19T07:28:14;1.70;99.90
9564;DHT22;4820;50.870;4.702;2023-01-19T07:30:42;1.70;99.90
9564;DHT22;4820;50.870;4.702;2023-01-19T07:33:10;1.70;99.90
9564;DHT22;4820;50.870;4.702;2023-01-19T07:35:36;1.70;99.90
9564;DHT22;4820;50.870;4.702;2023-01-19T07:38:01;1.70;99.90
9564;DHT22;4820;50.870;4.702;2023-01-19T07:40:28;1.70;99.90
9564;DHT22;4820;50.870;4.702;2023-01-19T07:42:54;1.70;99.90
9564;DHT22;4820;50.870;4.702;2023-01-19T07:45:20;1.70;99.90
9564;DHT22;4820;50.870;4.702;2023-01-19T07:47:47;1.70;99.90
9564;DHT22;4820;50.870;4.702;2023-01-19T07:50:14;1.70;99.90
9564;DHT22;4820;50.870;4.702;2023-01-19T07:52:40;1.80;99.90
9564;DHT22;4820;50.870;4.702;2023-01-19T07:55:07;1.80;99.90
9564;DHT22;4820;50.870;4.702;2023-01-19T07:57:33;1.80;99.90
9564;DHT22;4820;50.870;4.702;2023-01-19T07:59:59;1.80;99.90
9564;DHT22;4820;50.870;4.702;2023-01-19T08:02:24;1.80;99.90
9564;DHT22;4820;50.870;4.702;2023-01-19T08:04:51;1.90;99.90
9564;DHT22;4820;50.870;4.702;2023-01-19T08:07:17;1.80;99.90
9564;DHT22;4820;50.870;4.702;2023-01-19T08:09:42;1.80;99.90
9564;DHT22;4820;50.870;4.702;2023-01-19T08:12:08;1.80;99.90
9564;DHT22;4820;50.870;4.702;2023-01-19T08:14:34;1.80;99.90
9564;DHT22;4820;50.870;4.702;2023-01-19T08:17:00;1.80;99.90
9564;DHT22;4820;50.870;4.702;2023-01-19T08:19:26;1.80;99.90
9564;DHT22;4820;50.870;4.702;2023-01-19T08:21:52;1.80;99.90
9564;DHT22;4820;50.870;4.702;2023-01-19T08:24:19;1.80;99.90
9564;DHT22;4820;50.870;4.702;2023-01-19T08:26:57;1.90;99.90
9564;DHT22;4820;50.870;4.702;2023-01-19T08:29:23;2.00;99.90
9564;DHT22;4820;50.870;4.702;2023-01-19T08:31:49;2.10;99.90
9564;DHT22;4820;50.870;4.702;2023-01-19T08:34:15;2.20;99.90
9564;DHT22;4820;50.870;4.702;2023-01-19T08:36:40;2.20;99.90
9564;DHT22;4820;50.870;4.702;2023-01-19T08:39:06;2.30;99.90
9564;DHT22;4820;50.870;4.702;2023-01-19T08:41:31;2.30;99.90
9564;DHT22;4820;50.870;4.702;2023-01-19T08:43:57;2.40;99.90
9564;DHT22;4820;50.870;4.702;2023-01-19T08:46:23;2.40;99.90
9564;DHT22;4820;50.870;4.702;2023-01-19T08:48:48;2.50;99.90
9564;DHT22;4820;50.870;4.702;2023-01-19T08:51:15;2.60;99.90
9564;DHT22;4820;50.870;4.702;2023-01-19T08:53:42;2.60;99.90
9564;DHT22;4820;50.870;4.702;2023-01-19T08:56:09;2.60;99.90
9564;DHT22;4820;50.870;4.702;2023-01-19T08:58:43;2.60;99.90
9564;DHT22;4820;50.870;4.702;2023-01-19T09:01:10;2.60;99.90
9564;DHT22;4820;50.870;4.702;2023-01-19T09:03:39;2.60;99.90
9564;DHT22;4820;50.870;4.702;2023-01-19T09:06:09;2.50;99.90
9564;DHT22;4820;50.870;4.702;2023-01-19T09:08:35;2.60;99.90
9564;DHT22;4820;50.870;4.702;2023-01-19T09:11:01;2.50;99.90
9564;DHT22;4820;50.870;4.702;2023-01-19T09:13:27;2.50;99.90
9564;DHT22;4820;50.870;4.702;2023-01-19T09:15:53;2.50;99.90
9564;DHT22;4820;50.870;4.702;2023-01-19T09:18:20;2.50;99.90
9564;DHT22;4820;50.870;4.702;2023-01-19T09:20:48;2.50;99.90
9564;DHT22;4820;50.870;4.702;2023-01-19T09:23:18;2.60;99.90
9564;DHT22;4820;50.870;4.702;2023-01-19T09:25:46;2.60;99.90
9564;DHT22;4820;50.870;4.702;2023-01-19T09:28:13;2.70;99.90
9564;DHT22;4820;50.870;4.702;2023-01-19T09:30:42;2.70;99.90
9564;DHT22;4820;50.870;4.702;2023-01-19T09:33:12;2.80;99.90
9564;DHT22;4820;50.870;4.702;2023-01-19T09:35:39;2.80;99.90
9564;DHT22;4820;50.870;4.702;2023-01-19T09:38:06;2.80;99.90
9564;DHT22;4820;50.870;4.702;2023-01-19T09:40:50;2.80;99.90
9564;DHT22;4820;50.870;4.702;2023-01-19T09:48:56;2.80;99.90
9564;DHT22;4820;50.870;4.702;2023-01-19T09:51:25;2.80;99.90
9564;DHT22;4820;50.870;4.702;2023-01-19T09:56:27;2.90;99.90
9564;DHT22;4820;50.870;4.702;2023-01-19T09:58:53;2.90;99.90
9564;DHT22;4820;50.870;4.702;2023-01-19T10:01:33;3.00;99.90
9564;DHT22;4820;50.870;4.702;2023-01-19T10:04:28;3.00;99.90
9564;DHT22;4820;50.870;4.702;2023-01-19T10:10:19;3.10;99.90
9564;DHT22;4820;50.870;4.702;2023-01-19T10:13:20;3.20;99.90
9564;DHT22;4820;50.870;4.702;2023-01-19T10:16:08;3.20;99.90
9564;DHT22;4820;50.870;4.702;2023-01-19T10:18:44;3.20;99.90
9564;DHT22;4820;50.870;4.702;2023-01-19T10:21:21;3.20;99.90
9564;DHT22;4820;50.870;4.702;2023-01-19T10:24:11;3.20;99.90
9564;DHT22;4820;50.870;4.702;2023-01-19T10:26:42;3.20;99.90
9564;DHT22;4820;50.870;4.702;2023-01-19T10:29:32;3.20;99.90
9564;DHT22;4820;50.870;4.702;2023-01-19T10:32:24;3.10;99.90
9564;DHT22;4820;50.870;4.702;2023-01-19T10:34:52;3.20;99.90
9564;DHT22;4820;50.870;4.702;2023-01-19T10:37:33;3.20;99.90
9564;DHT22;4820;50.870;4.702;2023-01-19T10:42:38;3.30;99.90
9564;DHT22;4820;50.870;4.702;2023-01-19T10:45:19;3.40;99.90
9564;DHT22;4820;50.870;4.702;2023-01-19T10:47:47;3.40;99.90
9564;DHT22;4820;50.870;4.702;2023-01-19T10:53:01;3.40;99.90
9564;DHT22;4820;50.870;4.702;2023-01-19T10:55:37;3.40;99.90
9564;DHT22;4820;50.870;4.702;2023-01-19T10:58:05;3.50;99.90
9564;DHT22;4820;50.870;4.702;2023-01-19T11:00:38;3.50;99.90
9564;DHT22;4820;50.870;4.702;2023-01-19T11:03:21;3.40;99.90
9564;DHT22;4820;50.870;4.702;2023-01-19T11:05:47;3.30;99.90
9564;DHT22;4820;50.870;4.702;2023-01-19T11:08:28;3.20;99.90
9564;DHT22;4820;50.870;4.702;2023-01-19T11:10:58;3.20;99.90
9564;DHT22;4820;50.870;4.702;2023-01-19T11:13:27;3.10;99.90
9564;DHT22;4820;50.870;4.702;2023-01-19T11:15:57;3.10;99.90
9564;DHT22;4820;50.870;4.702;2023-01-19T11:18:36;3.10;99.90
9564;DHT22;4820;50.870;4.702;2023-01-19T11:21:03;3.20;99.90
9564;DHT22;4820;50.870;4.702;2023-01-19T11:25:59;3.30;99.90
9564;DHT22;4820;50.870;4.702;2023-01-19T11:31:01;3.40;99.90
9564;DHT22;4820;50.870;4.702;2023-01-19T11:33:36;3.50;99.90
9564;DHT22;4820;50.870;4.702;2023-01-19T11:36:05;3.60;99.90
9564;DHT22;4820;50.870;4.702;2023-01-19T11:38:31;3.60;99.90
9564;DHT22;4820;50.870;4.702;2023-01-19T11:41:04;3.50;99.90
9564;DHT22;4820;50.870;4.702;2023-01-19T11:43:31;3.50;99.90
9564;DHT22;4820;50.870;4.702;2023-01-19T11:45:57;3.50;99.90
9564;DHT22;4820;50.870;4.702;2023-01-19T11:48:34;3.60;99.90
9564;DHT22;4820;50.870;4.702;2023-01-19T11:51:03;3.70;99.90
9564;DHT22;4820;50.870;4.702;2023-01-19T11:53:33;3.70;99.90
9564;DHT22;4820;50.870;4.702;2023-01-19T11:56:10;3.70;99.90
9564;DHT22;4820;50.870;4.702;2023-01-19T11:58:41;3.70;99.90
9564;DHT22;4820;50.870;4.702;2023-01-19T12:01:24;3.80;99.90
9564;DHT22;4820;50.870;4.702;2023-01-19T12:06:32;3.80;99.90
9564;DHT22;4820;50.870;4.702;2023-01-19T12:11:42;3.80;99.90
9564;DHT22;4820;50.870;4.702;2023-01-19T12:14:22;3.90;99.90
9564;DHT22;4820;50.870;4.702;2023-01-19T12:16:55;3.90;99.90
9564;DHT22;4820;50.870;4.702;2023-01-19T12:19:25;4.10;99.90
9564;DHT22;4820;50.870;4.702;2023-01-19T12:21:54;4.20;99.90
9564;DHT22;4820;50.870;4.702;2023-01-19T12:24:35;4.30;99.90
9564;DHT22;4820;50.870;4.702;2023-01-19T12:27:38;4.30;99.90
9564;DHT22;4820;50.870;4.702;2023-01-19T12:30:19;4.20;99.90
9564;DHT22;4820;50.870;4.702;2023-01-19T12:32:45;4.20;99.90
9564;DHT22;4820;50.870;4.702;2023-01-19T12:41:21;4.30;99.90
9564;DHT22;4820;50.870;4.702;2023-01-19T12:44:12;4.30;99.90
9564;DHT22;4820;50.870;4.702;2023-01-19T12:49:45;4.30;99.90
9564;DHT22;4820;50.870;4.702;2023-01-19T13:00:47;4.30;99.90
9564;DHT22;4820;50.870;4.702;2023-01-19T13:02:49;4.40;99.90
9564;DHT22;4820;50.870;4.702;2023-01-19T13:13:33;4.50;99.90
9564;DHT22;4820;50.870;4.702;2023-01-19T13:26:36;4.50;99.90
9564;DHT22;4820;50.870;4.702;2023-01-19T13:31:52;4.50;99.90
9564;DHT22;4820;50.870;4.702;2023-01-19T13:34:24;4.60;99.90
9564;DHT22;4820;50.870;4.702;2023-01-19T13:36:52;4.70;99.90
9564;DHT22;4820;50.870;4.702;2023-01-19T13:39:36;4.80;99.90
9564;DHT22;4820;50.870;4.702;2023-01-19T13:42:14;4.90;99.90
9564;DHT22;4820;50.870;4.702;2023-01-19T13:44:44;4.90;99.90
9564;DHT22;4820;50.870;4.702;2023-01-19T13:47:22;5.00;99.90
9564;DHT22;4820;50.870;4.702;2023-01-19T13:49:57;5.10;99.90
9564;DHT22;4820;50.870;4.702;2023-01-19T13:52:26;5.30;99.90
9564;DHT22;4820;50.870;4.702;2023-01-19T13:55:00;5.30;99.90
9564;DHT22;4820;50.870;4.702;2023-01-19T13:57:37;5.40;99.90
9564;DHT22;4820;50.870;4.702;2023-01-19T14:10:43;5.10;99.90
9564;DHT22;4820;50.870;4.702;2023-01-19T14:13:22;5.00;99.90
9564;DHT22;4820;50.870;4.702;2023-01-19T14:15:51;5.00;99.90
9564;DHT22;4820;50.870;4.702;2023-01-19T14:21:03;5.00;99.90
9564;DHT22;4820;50.870;4.702;2023-01-19T14:31:45;4.90;99.90
9564;DHT22;4820;50.870;4.702;2023-01-19T14:37:00;4.80;99.90
9564;DHT22;4820;50.870;4.702;2023-01-19T14:39:31;4.80;99.90
9564;DHT22;4820;50.870;4.702;2023-01-19T14:41:59;4.80;99.90
9564;DHT22;4820;50.870;4.702;2023-01-19T14:46:52;4.70;99.90
9564;DHT22;4820;50.870;4.702;2023-01-19T14:49:28;4.70;99.90
9564;DHT22;4820;50.870;4.702;2023-01-19T14:51:56;4.70;99.90
9564;DHT22;4820;50.870;4.702;2023-01-19T14:54:38;4.70;99.90
9564;DHT22;4820;50.870;4.702;2023-01-19T14:57:09;4.70;99.90
9564;DHT22;4820;50.870;4.702;2023-01-19T14:59:35;4.70;99.90
9564;DHT22;4820;50.870;4.702;2023-01-19T15:02:00;4.70;99.90
9564;DHT22;4820;50.870;4.702;2023-01-19T15:04:26;4.70;99.90
9564;DHT22;4820;50.870;4.702;2023-01-19T15:06:53;4.60;99.90
9564;DHT22;4820;50.870;4.702;2023-01-19T15:09:19;4.70;99.90
9564;DHT22;4820;50.870;4.702;2023-01-19T15:11:46;4.70;99.90
9564;DHT22;4820;50.870;4.702;2023-01-19T15:14:13;4.70;99.90
9564;DHT22;4820;50.870;4.702;2023-01-19T15:16:41;4.70;99.90
9564;DHT22;4820;50.870;4.702;2023-01-19T15:19:11;4.70;99.90
9564;DHT22;4820;50.870;4.702;2023-01-19T15:21:37;4.70;99.90
9564;DHT22;4820;50.870;4.702;2023-01-19T15:24:09;4.60;99.90
9564;DHT22;4820;50.870;4.702;2023-01-19T15:26:53;4.60;99.90
9564;DHT22;4820;50.870;4.702;2023-01-19T15:29:23;4.50;99.90
9564;DHT22;4820;50.870;4.702;2023-01-19T15:31:49;4.50;99.90
9564;DHT22;4820;50.870;4.702;2023-01-19T15:34:15;4.60;99.90
9564;DHT22;4820;50.870;4.702;2023-01-19T15:36:42;4.60;99.90
9564;DHT22;4820;50.870;4.702;2023-01-19T15:39:09;4.60;99.90
9564;DHT22;4820;50.870;4.702;2023-01-19T15:41:39;4.60;99.90
9564;DHT22;4820;50.870;4.702;2023-01-19T15:44:06;4.60;99.90
9564;DHT22;4820;50.870;4.702;2023-01-19T15:46:34;4.50;99.90
9564;DHT22;4820;50.870;4.702;2023-01-19T15:49:00;4.40;99.90
9564;DHT22;4820;50.870;4.702;2023-01-19T15:51:26;4.40;99.90
9564;DHT22;4820;50.870;4.702;2023-01-19T15:53:52;4.40;99.90
9564;DHT22;4820;50.870;4.702;2023-01-19T15:56:28;4.30;99.90
9564;DHT22;4820;50.870;4.702;2023-01-19T15:58:54;4.30;99.90
9564;DHT22;4820;50.870;4.702;2023-01-19T16:01:22;4.30;99.90
9564;DHT22;4820;50.870;4.702;2023-01-19T16:03:49;4.30;99.90
9564;DHT22;4820;50.870;4.702;2023-01-19T16:06:16;4.20;99.90
9564;DHT22;4820;50.870;4.702;2023-01-19T16:08:42;4.20;99.90
9564;DHT22;4820;50.870;4.702;2023-01-19T16:11:14;4.20;99.90
9564;DHT22;4820;50.870;4.702;2023-01-19T16:13:43;4.10;99.90
9564;DHT22;4820;50.870;4.702;2023-01-19T16:16:20;4.00;99.90
9564;DHT22;4820;50.870;4.702;2023-01-19T16:18:46;4.00;99.90
9564;DHT22;4820;50.870;4.702;2023-01-19T16:21:12;3.90;99.90
9564;DHT22;4820;50.870;4.702;2023-01-19T16:23:38;3.80;99.90
9564;DHT22;4820;50.870;4.702;2023-01-19T16:26:31;3.80;99.90
9564;DHT22;4820;50.870;4.702;2023-01-19T16:29:01;3.80;99.90
9564;DHT22;4820;50.870;4.702;2023-01-19T16:31:28;3.80;99.90
9564;DHT22;4820;50.870;4.702;2023-01-19T16:33:54;3.70;99.90
9564;DHT22;4820;50.870;4.702;2023-01-19T16:36:31;3.70;99.90
9564;DHT22;4820;50.870;4.702;2023-01-19T16:39:05;3.70;99.90
9564;DHT22;4820;50.870;4.702;2023-01-19T16:41:33;3.60;99.90
9564;DHT22;4820;50.870;4.702;2023-01-19T16:43:59;3.70;99.90
9564;DHT22;4820;50.870;4.702;2023-01-19T16:46:28;3.60;99.90
9564;DHT22;4820;50.870;4.702;2023-01-19T16:49:02;3.50;99.90
9564;DHT22;4820;50.870;4.702;2023-01-19T16:51:29;3.50;99.90
9564;DHT22;4820;50.870;4.702;2023-01-19T16:53:55;3.50;99.90
9564;DHT22;4820;50.870;4.702;2023-01-19T16:56:20;3.50;99.90
9564;DHT22;4820;50.870;4.702;2023-01-19T16:58:46;3.50;99.90
9564;DHT22;4820;50.870;4.702;2023-01-19T17:01:15;3.40;99.90
9564;DHT22;4820;50.870;4.702;2023-01-19T17:03:41;3.40;99.90
9564;DHT22;4820;50.870;4.702;2023-01-19T17:06:09;3.40;99.90
9564;DHT22;4820;50.870;4.702;2023-01-19T17:08:37;3.50;99.90
9564;DHT22;4820;50.870;4.702;2023-01-19T17:11:17;3.50;99.90
9564;DHT22;4820;50.870;4.702;2023-01-19T17:13:51;3.50;99.90
9564;DHT22;4820;50.870;4.702;2023-01-19T17:16:17;3.40;99.90
9564;DHT22;4820;50.870;4.702;2023-01-19T17:18:43;3.40;99.90
9564;DHT22;4820;50.870;4.702;2023-01-19T17:21:10;3.40;99.90
9564;DHT22;4820;50.870;4.702;2023-01-19T17:23:40;3.30;99.90
9564;DHT22;4820;50.870;4.702;2023-01-19T17:26:09;3.30;99.90
9564;DHT22;4820;50.870;4.702;2023-01-19T17:28:35;3.30;99.90
9564;DHT22;4820;50.870;4.702;2023-01-19T17:31:12;3.20;99.90
9564;DHT22;4820;50.870;4.702;2023-01-19T17:33:38;3.20;99.90
9564;DHT22;4820;50.870;4.702;2023-01-19T17:36:19;3.20;99.90
9564;DHT22;4820;50.870;4.702;2023-01-19T17:38:47;3.10;99.90
9564;DHT22;4820;50.870;4.702;2023-01-19T17:41:14;3.10;99.90
9564;DHT22;4820;50.870;4.702;2023-01-19T17:43:40;3.10;99.90
9564;DHT22;4820;50.870;4.702;2023-01-19T17:46:06;3.10;99.90
9564;DHT22;4820;50.870;4.702;2023-01-19T17:48:32;3.00;99.90
9564;DHT22;4820;50.870;4.702;2023-01-19T17:51:05;3.00;99.90
9564;DHT22;4820;50.870;4.702;2023-01-19T17:53:32;3.00;99.90
9564;DHT22;4820;50.870;4.702;2023-01-19T17:56:06;3.00;99.90
9564;DHT22;4820;50.870;4.702;2023-01-19T17:58:32;3.00;99.90
9564;DHT22;4820;50.870;4.702;2023-01-19T18:01:14;3.00;99.90
9564;DHT22;4820;50.870;4.702;2023-01-19T18:03:41;3.00;99.90
9564;DHT22;4820;50.870;4.702;2023-01-19T18:06:07;3.00;99.90
9564;DHT22;4820;50.870;4.702;2023-01-19T18:08:34;3.00;99.90
9564;DHT22;4820;50.870;4.702;2023-01-19T18:11:02;3.00;99.90
9564;DHT22;4820;50.870;4.702;2023-01-19T18:13:28;3.00;99.90
9564;DHT22;4820;50.870;4.702;2023-01-19T18:15:59;2.90;99.90
9564;DHT22;4820;50.870;4.702;2023-01-19T18:18:26;2.90;99.90
9564;DHT22;4820;50.870;4.702;2023-01-19T18:20:51;2.90;99.90
9564;DHT22;4820;50.870;4.702;2023-01-19T18:23:17;2.90;99.90
9564;DHT22;4820;50.870;4.702;2023-01-19T18:25:42;2.90;99.90
9564;DHT22;4820;50.870;4.702;2023-01-19T18:28:08;2.90;99.90